createdAt,value
2023-05-27T00:00:35.714Z,25.43
2023-05-27T00:01:35.692Z,25.43
2023-05-27T00:02:35.827Z,25.42
2023-05-27T00:03:35.898Z,25.43
2023-05-27T00:04:35.737Z,25.43
2023-05-27T00:05:35.723Z,25.42
2023-05-27T00:06:35.762Z,25.42
2023-05-27T00:07:35.805Z,25.43
2023-05-27T00:08:35.844Z,25.43
2023-05-27T00:09:35.898Z,25.43
2023-05-27T00:10:35.955Z,25.43
2023-05-27T00:11:35.988Z,25.44
2023-05-27T00:12:36.032Z,25.44
2023-05-27T00:13:36.081Z,25.44
2023-05-27T00:14:36.098Z,25.44
2023-05-27T00:15:36.144Z,25.45
2023-05-27T00:16:36.196Z,25.45
2023-05-27T00:17:36.274Z,25.45
2023-05-27T00:18:36.301Z,25.44
2023-05-27T00:19:36.314Z,25.45
2023-05-27T00:20:36.472Z,25.44
2023-05-27T00:21:36.447Z,25.45
2023-05-27T00:22:36.499Z,25.44
2023-05-27T00:23:36.508Z,25.44
2023-05-27T00:24:36.518Z,25.45
2023-05-27T00:25:36.514Z,25.45
2023-05-27T00:26:36.537Z,25.45
2023-05-27T00:27:36.548Z,25.45
2023-05-27T00:28:36.505Z,25.45
2023-05-27T00:29:36.504Z,25.45
2023-05-27T00:30:36.533Z,25.45
2023-05-27T00:31:36.561Z,25.45
2023-05-27T00:32:36.555Z,25.45
2023-05-27T00:33:36.516Z,25.45
2023-05-27T00:34:36.546Z,25.44
2023-05-27T00:35:36.546Z,25.45
2023-05-27T00:36:36.525Z,25.45
2023-05-27T00:37:36.557Z,25.45
2023-05-27T00:38:36.522Z,25.45
2023-05-27T00:39:36.528Z,25.44
2023-05-27T00:40:37.386Z,25.44
2023-05-27T00:41:36.532Z,25.45
2023-05-27T00:42:36.533Z,25.46
2023-05-27T00:43:36.554Z,25.45
2023-05-27T00:44:36.555Z,25.45
2023-05-27T00:45:36.584Z,25.44
2023-05-27T00:46:36.664Z,25.45
2023-05-27T00:47:36.625Z,25.45
2023-05-27T00:48:36.583Z,25.44
2023-05-27T00:49:36.615Z,25.44
2023-05-27T00:50:36.567Z,25.44
2023-05-27T00:51:36.632Z,25.44
2023-05-27T00:52:36.591Z,25.45
2023-05-27T00:53:36.595Z,25.44
2023-05-27T00:54:36.618Z,25.44
2023-05-27T00:55:36.597Z,25.44
2023-05-27T00:56:36.628Z,25.43
2023-05-27T00:57:36.628Z,25.44
2023-05-27T00:58:36.649Z,25.43
2023-05-27T00:59:36.648Z,25.43
2023-05-27T01:00:36.628Z,25.44
2023-05-27T01:01:36.692Z,25.44
2023-05-27T01:02:36.759Z,25.43
2023-05-27T01:03:36.795Z,25.43
2023-05-27T01:04:36.657Z,25.43
2023-05-27T01:05:36.635Z,25.43
2023-05-27T01:06:36.636Z,25.43
2023-05-27T01:07:36.649Z,25.43
2023-05-27T01:08:36.614Z,25.42
2023-05-27T01:09:36.669Z,25.41
2023-05-27T01:10:36.633Z,25.42
2023-05-27T01:11:36.661Z,25.41
2023-05-27T01:12:36.653Z,25.41
2023-05-27T01:13:36.652Z,25.41
2023-05-27T01:14:36.649Z,25.41
2023-05-27T01:15:36.680Z,25.41
2023-05-27T01:16:36.727Z,25.41
2023-05-27T01:17:36.706Z,25.41
2023-05-27T01:18:36.764Z,25.40
2023-05-27T01:19:36.861Z,25.40
2023-05-27T01:20:36.950Z,25.39
2023-05-27T01:21:36.909Z,25.40
2023-05-27T01:22:36.921Z,25.41
2023-05-27T01:23:36.919Z,25.41
2023-05-27T01:24:36.917Z,25.41
2023-05-27T01:25:36.960Z,25.41
2023-05-27T01:26:36.973Z,25.41
2023-05-27T01:27:36.920Z,25.42
2023-05-27T01:28:36.992Z,25.42
2023-05-27T01:29:36.932Z,25.42
2023-05-27T01:30:36.939Z,25.42
2023-05-27T01:31:36.973Z,25.43
2023-05-27T01:32:36.999Z,25.43
2023-05-27T01:33:36.964Z,25.43
2023-05-27T01:34:36.972Z,25.43
2023-05-27T01:35:36.977Z,25.43
2023-05-27T01:36:36.986Z,25.44
2023-05-27T01:37:37.007Z,25.43
2023-05-27T01:38:37.082Z,25.43
2023-05-27T01:39:37.084Z,25.43
2023-05-27T01:40:37.144Z,25.43
2023-05-27T01:41:37.183Z,25.44
2023-05-27T01:42:37.286Z,25.44
2023-05-27T01:43:37.285Z,25.43
2023-05-27T01:44:37.335Z,25.43
2023-05-27T01:45:37.399Z,25.43
2023-05-27T01:46:37.502Z,25.43
2023-05-27T01:47:37.562Z,25.43
2023-05-27T01:48:37.530Z,25.42
2023-05-27T01:49:37.610Z,25.43
2023-05-27T01:50:37.708Z,25.43
2023-05-27T01:51:37.726Z,25.44
2023-05-27T01:52:37.732Z,25.44
2023-05-27T01:53:37.806Z,25.44
2023-05-27T01:54:37.852Z,25.44
2023-05-27T01:55:37.908Z,25.44
2023-05-27T01:56:37.951Z,25.43
2023-05-27T01:57:38.004Z,25.44
2023-05-27T01:58:38.038Z,25.43
2023-05-27T01:59:38.017Z,25.44
2023-05-27T02:00:38.106Z,25.44
2023-05-27T02:01:38.019Z,25.44
2023-05-27T02:02:38.055Z,25.45
2023-05-27T02:03:38.176Z,25.45
2023-05-27T02:04:38.083Z,25.44
2023-05-27T02:05:38.114Z,25.44
2023-05-27T02:06:38.161Z,25.44
2023-05-27T02:07:38.215Z,25.44
2023-05-27T02:08:38.264Z,25.44
2023-05-27T02:09:38.290Z,25.43
2023-05-27T02:10:38.416Z,25.43
2023-05-27T02:11:38.413Z,25.43
2023-05-27T02:12:38.483Z,25.43
2023-05-27T02:13:38.522Z,25.43
2023-05-27T02:14:38.697Z,25.44
2023-05-27T02:15:38.573Z,25.43
2023-05-27T02:16:38.664Z,25.43
2023-05-27T02:17:38.738Z,25.43
2023-05-27T02:18:38.740Z,25.43
2023-05-27T02:19:38.813Z,25.43
2023-05-27T02:20:38.958Z,25.43
2023-05-27T02:21:38.873Z,25.44
2023-05-27T02:22:38.891Z,25.43
2023-05-27T02:23:38.894Z,25.43
2023-05-27T02:24:38.890Z,25.43
2023-05-27T02:25:38.985Z,25.43
2023-05-27T02:26:39.065Z,25.42
2023-05-27T02:27:39.067Z,25.43
2023-05-27T02:28:39.144Z,25.43
2023-05-27T02:29:39.142Z,25.43
2023-05-27T02:30:39.256Z,25.43
2023-05-27T02:31:39.304Z,25.43
2023-05-27T02:32:39.386Z,25.44
2023-05-27T02:33:39.348Z,25.43
2023-05-27T02:34:39.418Z,25.43
2023-05-27T02:35:39.439Z,25.44
2023-05-27T02:36:39.521Z,25.44
2023-05-27T02:37:39.551Z,25.43
2023-05-27T02:38:39.599Z,25.43
2023-05-27T02:39:39.624Z,25.43
2023-05-27T02:40:39.671Z,25.44
2023-05-27T02:41:39.722Z,25.43
2023-05-27T02:42:39.805Z,25.43
2023-05-27T02:43:39.838Z,25.44
2023-05-27T02:44:39.856Z,25.42
2023-05-27T02:45:39.887Z,25.43
2023-05-27T02:46:39.907Z,25.43
2023-05-27T02:47:39.957Z,25.44
2023-05-27T02:48:39.896Z,25.43
2023-05-27T02:49:39.936Z,25.43
2023-05-27T02:50:39.998Z,25.44
2023-05-27T02:51:40.044Z,25.44
2023-05-27T02:52:40.062Z,25.43
2023-05-27T02:53:40.134Z,25.44
2023-05-27T02:54:40.177Z,25.44
2023-05-27T02:55:40.202Z,25.44
2023-05-27T02:56:40.260Z,25.44
2023-05-27T02:57:40.301Z,25.44
2023-05-27T02:58:40.384Z,25.44
2023-05-27T02:59:40.401Z,25.43
2023-05-27T03:00:40.448Z,25.44
2023-05-27T03:01:40.520Z,25.43
2023-05-27T03:02:40.563Z,25.44
2023-05-27T03:03:40.726Z,25.44
2023-05-27T03:04:40.637Z,25.44
2023-05-27T03:05:40.716Z,25.44
2023-05-27T03:06:40.758Z,25.44
2023-05-27T03:07:40.816Z,25.44
2023-05-27T03:08:40.852Z,25.43
2023-05-27T03:09:40.903Z,25.44
2023-05-27T03:10:40.916Z,25.44
2023-05-27T03:11:40.991Z,25.43
2023-05-27T03:12:41.064Z,25.44
2023-05-27T03:13:41.089Z,25.43
2023-05-27T03:14:41.152Z,25.43
2023-05-27T03:15:41.227Z,25.44
2023-05-27T03:16:41.302Z,25.44
2023-05-27T03:17:41.336Z,25.44
2023-05-27T03:18:41.366Z,25.43
2023-05-27T03:19:41.370Z,25.44
2023-05-27T03:20:41.551Z,25.44
2023-05-27T03:21:41.478Z,25.44
2023-05-27T03:22:41.516Z,25.43
2023-05-27T03:23:41.560Z,25.44
2023-05-27T03:24:41.628Z,25.44
2023-05-27T03:25:41.724Z,25.44
2023-05-27T03:26:41.702Z,25.44
2023-05-27T03:27:41.788Z,25.43
2023-05-27T03:28:41.814Z,25.44
2023-05-27T03:29:41.846Z,25.43
2023-05-27T03:30:41.912Z,25.43
2023-05-27T03:31:41.963Z,25.43
2023-05-27T03:32:42.052Z,25.44
2023-05-27T03:33:42.020Z,25.43
2023-05-27T03:34:42.072Z,25.43
2023-05-27T03:35:42.099Z,25.43
2023-05-27T03:36:42.139Z,25.44
2023-05-27T03:37:42.221Z,25.43
2023-05-27T03:38:42.244Z,25.43
2023-05-27T03:39:42.312Z,25.43
2023-05-27T03:40:42.348Z,25.43
2023-05-27T03:41:42.387Z,25.43
2023-05-27T03:42:42.425Z,25.43
2023-05-27T03:43:42.421Z,25.43
2023-05-27T03:44:42.433Z,25.44
2023-05-27T03:45:42.526Z,25.43
2023-05-27T03:46:42.504Z,25.43
2023-05-27T03:47:42.539Z,25.44
2023-05-27T03:48:42.548Z,25.43
2023-05-27T03:49:42.599Z,25.43
2023-05-27T03:50:43.743Z,25.44
2023-05-27T03:51:42.743Z,25.44
2023-05-27T03:52:42.691Z,25.44
2023-05-27T03:53:42.695Z,25.43
2023-05-27T03:54:42.709Z,25.43
2023-05-27T03:55:42.776Z,25.43
2023-05-27T03:56:42.831Z,25.43
2023-05-27T03:57:42.879Z,25.42
2023-05-27T03:58:44.413Z,25.43
2023-05-27T03:59:42.904Z,25.43
2023-05-27T04:00:42.894Z,25.43
2023-05-27T04:01:42.897Z,25.43
2023-05-27T04:02:42.892Z,25.43
2023-05-27T04:03:42.946Z,25.42
2023-05-27T04:04:42.942Z,25.42
2023-05-27T04:05:42.882Z,25.44
2023-05-27T04:06:42.850Z,25.43
2023-05-27T04:07:42.858Z,25.43
2023-05-27T04:08:42.838Z,25.43
2023-05-27T04:09:42.849Z,25.44
2023-05-27T04:10:42.825Z,25.43
2023-05-27T04:11:42.821Z,25.43
2023-05-27T04:12:42.821Z,25.43
2023-05-27T04:13:42.815Z,25.43
2023-05-27T04:14:42.774Z,25.43
2023-05-27T04:15:42.771Z,25.42
2023-05-27T04:16:42.872Z,25.42
2023-05-27T04:17:42.864Z,25.41
2023-05-27T04:18:42.777Z,25.41
2023-05-27T04:19:42.793Z,25.40
2023-05-27T04:20:42.840Z,25.40
2023-05-27T04:21:42.735Z,25.40
2023-05-27T04:22:42.771Z,25.39
2023-05-27T04:23:42.716Z,25.39
2023-05-27T04:24:42.716Z,25.39
2023-05-27T04:25:42.745Z,25.39
2023-05-27T04:26:42.715Z,25.39
2023-05-27T04:27:42.729Z,25.39
2023-05-27T04:28:42.686Z,25.39
2023-05-27T04:29:42.716Z,25.39
2023-05-27T04:30:42.700Z,25.40
2023-05-27T04:31:42.782Z,25.40
2023-05-27T04:32:42.667Z,25.40
2023-05-27T04:33:42.684Z,25.41
2023-05-27T04:34:42.692Z,25.41
2023-05-27T04:35:42.674Z,25.40
2023-05-27T04:36:42.690Z,25.41
2023-05-27T04:37:42.647Z,25.42
2023-05-27T04:38:42.642Z,25.42
2023-05-27T04:39:42.643Z,25.42
2023-05-27T04:40:42.637Z,25.42
2023-05-27T04:41:42.652Z,25.42
2023-05-27T04:42:42.612Z,25.42
2023-05-27T04:43:42.614Z,25.42
2023-05-27T04:44:42.595Z,25.43
2023-05-27T04:45:42.599Z,25.43
2023-05-27T04:46:42.670Z,25.43
2023-05-27T04:47:42.595Z,25.43
2023-05-27T04:48:42.578Z,25.43
2023-05-27T04:49:42.549Z,25.43
2023-05-27T04:50:42.531Z,25.43
2023-05-27T04:51:42.567Z,25.43
2023-05-27T04:52:42.573Z,25.43
2023-05-27T04:53:42.545Z,25.44
2023-05-27T04:54:42.579Z,25.44
2023-05-27T04:55:42.774Z,25.43
2023-05-27T04:56:42.535Z,25.44
2023-05-27T04:57:42.633Z,25.44
2023-05-27T04:58:42.519Z,25.44
2023-05-27T04:59:42.498Z,25.44
2023-05-27T05:00:42.520Z,25.43
2023-05-27T05:01:42.621Z,25.44
2023-05-27T05:02:42.669Z,25.43
2023-05-27T05:03:42.705Z,25.43
2023-05-27T05:04:42.719Z,25.43
2023-05-27T05:05:42.739Z,25.43
2023-05-27T05:06:42.773Z,25.43
2023-05-27T05:07:42.802Z,25.42
2023-05-27T05:08:42.808Z,25.43
2023-05-27T05:09:42.805Z,25.43
2023-05-27T05:10:42.835Z,25.43
2023-05-27T05:11:42.848Z,25.43
2023-05-27T05:12:42.899Z,25.43
2023-05-27T05:13:42.902Z,25.44
2023-05-27T05:14:42.955Z,25.44
2023-05-27T05:15:43.021Z,25.43
2023-05-27T05:16:43.084Z,25.44
2023-05-27T05:17:43.124Z,25.44
2023-05-27T05:18:43.127Z,25.45
2023-05-27T05:19:43.172Z,25.45
2023-05-27T05:20:43.305Z,25.45
2023-05-27T05:21:43.239Z,25.44
2023-05-27T05:22:43.295Z,25.44
2023-05-27T05:23:43.329Z,25.45
2023-05-27T05:24:43.373Z,25.45
2023-05-27T05:25:43.394Z,25.45
2023-05-27T05:26:43.436Z,25.46
2023-05-27T05:27:43.450Z,25.46
2023-05-27T05:28:43.529Z,25.45
2023-05-27T05:29:43.540Z,25.46
2023-05-27T05:30:43.582Z,25.46
2023-05-27T05:31:43.651Z,25.46
2023-05-27T05:32:43.689Z,25.45
2023-05-27T05:33:43.707Z,25.47
2023-05-27T05:34:43.753Z,25.46
2023-05-27T05:35:43.786Z,25.45
2023-05-27T05:36:43.815Z,25.45
2023-05-27T05:37:43.865Z,25.45
2023-05-27T05:38:43.886Z,25.45
2023-05-27T05:39:43.964Z,25.45
2023-05-27T05:40:43.956Z,25.44
2023-05-27T05:41:44.024Z,25.44
2023-05-27T05:42:44.078Z,25.44
2023-05-27T05:43:44.082Z,25.44
2023-05-27T05:44:44.140Z,25.44
2023-05-27T05:45:44.153Z,25.44
2023-05-27T05:46:44.227Z,25.44
2023-05-27T05:47:44.179Z,25.44
2023-05-27T05:48:44.157Z,25.43
2023-05-27T05:49:44.141Z,25.43
2023-05-27T05:50:44.160Z,25.43
2023-05-27T05:51:44.138Z,25.44
2023-05-27T05:52:44.141Z,25.43
2023-05-27T05:53:44.130Z,25.44
2023-05-27T05:54:44.150Z,25.44
2023-05-27T05:55:44.212Z,25.43
2023-05-27T05:56:44.271Z,25.43
2023-05-27T05:57:44.283Z,25.43
2023-05-27T05:58:44.323Z,25.44
2023-05-27T05:59:44.389Z,25.43
2023-05-27T06:00:44.399Z,25.43
2023-05-27T06:01:44.506Z,25.43
2023-05-27T06:02:44.616Z,25.43
2023-05-27T06:03:44.806Z,25.43
2023-05-27T06:04:44.596Z,25.43
2023-05-27T06:05:44.649Z,25.43
2023-05-27T06:06:44.664Z,25.42
2023-05-27T06:07:44.709Z,25.42
2023-05-27T06:08:44.765Z,25.43
2023-05-27T06:09:44.787Z,25.44
2023-05-27T06:10:44.833Z,25.44
2023-05-27T06:11:44.914Z,25.43
2023-05-27T06:12:44.917Z,25.43
2023-05-27T06:13:44.970Z,25.43
2023-05-27T06:14:45.001Z,25.43
2023-05-27T06:15:45.042Z,25.43
2023-05-27T06:16:45.086Z,25.44
2023-05-27T06:17:45.180Z,25.44
2023-05-27T06:18:45.169Z,25.44
2023-05-27T06:19:45.224Z,25.45
2023-05-27T06:20:45.312Z,25.44
2023-05-27T06:21:45.292Z,25.45
2023-05-27T06:22:45.310Z,25.45
2023-05-27T06:23:45.373Z,25.45
2023-05-27T06:24:45.388Z,25.47
2023-05-27T06:25:45.388Z,25.47
2023-05-27T06:26:45.408Z,25.48
2023-05-27T06:27:45.362Z,25.49
2023-05-27T06:28:45.400Z,25.48
2023-05-27T06:29:45.443Z,25.48
2023-05-27T06:30:45.382Z,25.49
2023-05-27T06:31:45.393Z,25.49
2023-05-27T06:32:45.402Z,25.49
2023-05-27T06:33:45.391Z,25.49
2023-05-27T06:34:45.428Z,25.50
2023-05-27T06:35:45.408Z,25.51
2023-05-27T06:36:45.453Z,25.51
2023-05-27T06:37:47.395Z,25.50
2023-05-27T06:38:45.408Z,25.51
2023-05-27T06:39:45.421Z,25.51
2023-05-27T06:40:45.417Z,25.51
2023-05-27T06:41:45.408Z,25.52
2023-05-27T06:42:45.405Z,25.52
2023-05-27T06:43:45.361Z,25.52
2023-05-27T06:44:45.371Z,25.53
2023-05-27T06:45:59.458Z,25.53
2023-05-27T06:46:46.379Z,25.53
2023-05-27T06:47:45.400Z,25.54
2023-05-27T06:48:45.348Z,25.53
2023-05-27T06:49:45.349Z,25.54
2023-05-27T06:50:45.323Z,25.54
2023-05-27T06:51:45.325Z,25.54
2023-05-27T06:52:45.331Z,25.54
2023-05-27T06:53:45.307Z,25.54
2023-05-27T06:54:45.438Z,25.55
2023-05-27T06:55:45.286Z,25.54
2023-05-27T06:56:45.295Z,25.54
2023-05-27T06:57:45.302Z,25.54
2023-05-27T06:58:45.253Z,25.54
2023-05-27T06:59:45.262Z,25.54
2023-05-27T07:00:45.253Z,25.54
2023-05-27T07:01:45.402Z,25.55
2023-05-27T07:02:45.336Z,25.55
2023-05-27T07:03:45.297Z,25.54
2023-05-27T07:04:45.344Z,25.54
2023-05-27T07:05:45.424Z,25.54
2023-05-27T07:06:45.434Z,25.55
2023-05-27T07:07:45.460Z,25.55
2023-05-27T07:08:45.459Z,25.56
2023-05-27T07:09:45.513Z,25.56
2023-05-27T07:10:45.546Z,25.56
2023-05-27T07:11:45.554Z,25.56
2023-05-27T07:12:45.616Z,25.57
2023-05-27T07:13:45.634Z,25.59
2023-05-27T07:14:45.690Z,25.59
2023-05-27T07:15:45.755Z,25.60
2023-05-27T07:16:45.734Z,25.60
2023-05-27T07:17:45.824Z,25.62
2023-05-27T07:18:45.818Z,25.62
2023-05-27T07:19:45.883Z,25.63
2023-05-27T07:20:46.094Z,25.65
2023-05-27T07:21:45.962Z,25.64
2023-05-27T07:22:46.048Z,25.66
2023-05-27T07:23:46.073Z,25.67
2023-05-27T07:24:46.162Z,25.68
2023-05-27T07:25:46.191Z,25.70
2023-05-27T07:26:46.278Z,25.71
2023-05-27T07:27:46.325Z,25.72
2023-05-27T07:28:46.304Z,25.71
2023-05-27T07:29:46.312Z,25.72
2023-05-27T07:30:46.366Z,25.72
2023-05-27T07:31:46.445Z,25.72
2023-05-27T07:32:46.917Z,25.73
2023-05-27T07:33:46.473Z,25.73
2023-05-27T07:34:46.456Z,25.73
2023-05-27T07:35:46.441Z,25.73
2023-05-27T07:36:46.479Z,25.72
2023-05-27T07:37:46.450Z,25.72
2023-05-27T07:38:46.428Z,25.72
2023-05-27T07:39:46.467Z,25.73
2023-05-27T07:40:46.426Z,25.74
2023-05-27T07:41:46.428Z,25.74
2023-05-27T07:42:46.424Z,25.75
2023-05-27T07:43:46.399Z,25.76
2023-05-27T07:44:46.385Z,25.79
2023-05-27T07:45:46.414Z,25.80
2023-05-27T07:46:46.414Z,25.81
2023-05-27T07:47:46.409Z,25.81
2023-05-27T07:48:46.354Z,25.81
2023-05-27T07:49:46.372Z,25.83
2023-05-27T07:50:46.332Z,25.85
2023-05-27T07:51:46.341Z,25.86
2023-05-27T07:52:46.386Z,25.86
2023-05-27T07:53:46.351Z,25.86
2023-05-27T07:54:54.424Z,25.87
2023-05-27T07:55:47.329Z,25.86
2023-05-27T07:56:46.328Z,25.87
2023-05-27T07:57:46.314Z,25.87
2023-05-27T07:58:46.321Z,25.87
2023-05-27T07:59:46.327Z,25.87
2023-05-27T08:00:46.369Z,25.88
2023-05-27T08:01:46.286Z,25.89
2023-05-27T08:02:46.360Z,25.90
2023-05-27T08:03:46.356Z,25.91
2023-05-27T08:04:46.567Z,25.92
2023-05-27T08:05:46.247Z,25.92
2023-05-27T08:06:46.317Z,25.93
2023-05-27T08:07:46.325Z,25.94
2023-05-27T08:08:46.389Z,25.95
2023-05-27T08:09:46.426Z,25.97
2023-05-27T08:10:46.442Z,25.98
2023-05-27T08:11:46.509Z,26.00
2023-05-27T08:12:46.563Z,26.02
2023-05-27T08:13:46.575Z,26.02
2023-05-27T08:14:46.624Z,26.03
2023-05-27T08:15:46.671Z,26.03
2023-05-27T08:16:46.698Z,26.04
2023-05-27T08:17:46.810Z,26.06
2023-05-27T08:18:46.833Z,26.08
2023-05-27T08:19:46.800Z,26.10
2023-05-27T08:20:46.922Z,26.12
2023-05-27T08:21:46.884Z,26.13
2023-05-27T08:22:46.886Z,26.15
2023-05-27T08:23:46.980Z,26.16
2023-05-27T08:24:46.965Z,26.17
2023-05-27T08:25:47.001Z,26.19
2023-05-27T08:26:47.023Z,26.21
2023-05-27T08:27:47.056Z,26.21
2023-05-27T08:28:47.065Z,26.22
2023-05-27T08:29:47.075Z,26.22
2023-05-27T08:30:47.140Z,26.21
2023-05-27T08:31:47.335Z,26.22
2023-05-27T08:32:47.766Z,26.22
2023-05-27T08:33:47.180Z,26.23
2023-05-27T08:34:47.234Z,26.23
2023-05-27T08:35:47.265Z,26.25
2023-05-27T08:36:47.293Z,26.26
2023-05-27T08:37:47.287Z,26.26
2023-05-27T08:38:47.336Z,26.28
2023-05-27T08:39:47.335Z,26.27
2023-05-27T08:40:47.336Z,26.28
2023-05-27T08:41:47.382Z,26.29
2023-05-27T08:42:47.424Z,26.30
2023-05-27T08:43:47.460Z,26.33
2023-05-27T08:44:47.455Z,26.34
2023-05-27T08:45:47.516Z,26.33
2023-05-27T08:46:47.614Z,26.33
2023-05-27T08:47:47.571Z,26.35
2023-05-27T08:48:47.555Z,26.36
2023-05-27T08:49:47.588Z,26.37
2023-05-27T08:50:47.572Z,26.37
2023-05-27T08:51:47.718Z,26.36
2023-05-27T08:52:47.636Z,26.36
2023-05-27T08:53:47.671Z,26.36
2023-05-27T08:54:47.661Z,26.36
2023-05-27T08:55:47.738Z,26.37
2023-05-27T08:56:47.731Z,26.36
2023-05-27T08:57:47.750Z,26.38
2023-05-27T08:58:47.745Z,26.38
2023-05-27T08:59:47.765Z,26.39
2023-05-27T09:00:47.925Z,26.41
2023-05-27T09:01:47.839Z,26.42
2023-05-27T09:02:47.873Z,26.42
2023-05-27T09:03:47.850Z,26.44
2023-05-27T09:04:47.861Z,26.46
2023-05-27T09:05:47.870Z,26.48
2023-05-27T09:06:47.892Z,26.48
2023-05-27T09:07:47.922Z,26.50
2023-05-27T09:08:51.143Z,26.51
2023-05-27T09:09:47.970Z,26.51
2023-05-27T09:10:48.035Z,26.52
2023-05-27T09:11:47.916Z,26.52
2023-05-27T09:12:47.940Z,26.53
2023-05-27T09:13:47.917Z,26.54
2023-05-27T09:14:47.906Z,26.55
2023-05-27T09:15:47.933Z,26.56
2023-05-27T09:16:47.960Z,26.57
2023-05-27T09:17:47.933Z,26.57
2023-05-27T09:18:48.000Z,26.58
2023-05-27T09:19:47.875Z,26.58
2023-05-27T09:20:48.022Z,26.58
2023-05-27T09:21:47.875Z,26.59
2023-05-27T09:22:47.862Z,26.59
2023-05-27T09:23:47.868Z,26.58
2023-05-27T09:24:47.858Z,26.59
2023-05-27T09:25:47.836Z,26.59
2023-05-27T09:26:47.864Z,26.62
2023-05-27T09:27:47.814Z,26.62
2023-05-27T09:28:47.797Z,26.62
2023-05-27T09:29:47.816Z,26.62
2023-05-27T09:30:47.922Z,26.63
2023-05-27T09:31:47.825Z,26.63
2023-05-27T09:32:47.872Z,26.64
2023-05-27T09:33:47.803Z,26.64
2023-05-27T09:34:47.800Z,26.65
2023-05-27T09:35:47.749Z,26.65
2023-05-27T09:36:47.789Z,26.65
2023-05-27T09:37:47.772Z,26.65
2023-05-27T09:38:47.752Z,26.66
2023-05-27T09:39:48.280Z,26.66
2023-05-27T09:40:47.753Z,26.66
2023-05-27T09:41:47.756Z,26.67
2023-05-27T09:42:47.715Z,26.67
2023-05-27T09:43:47.725Z,26.68
2023-05-27T09:44:47.701Z,26.67
2023-05-27T09:45:47.753Z,26.67
2023-05-27T09:46:47.738Z,26.67
2023-05-27T09:47:47.790Z,26.68
2023-05-27T09:48:47.674Z,26.69
2023-05-27T09:50:47.708Z,26.70
2023-05-27T09:51:47.681Z,26.71
2023-05-27T09:52:59.157Z,26.71
2023-05-27T09:53:48.677Z,26.71
2023-05-27T09:54:47.653Z,26.73
2023-05-27T09:55:47.649Z,26.75
2023-05-27T09:56:47.673Z,26.75
2023-05-27T09:57:47.645Z,26.76
2023-05-27T09:58:47.638Z,26.75
2023-05-27T09:59:47.614Z,26.73
2023-05-27T10:00:47.615Z,26.73
2023-05-27T10:01:47.665Z,26.72
2023-05-27T10:02:47.614Z,26.71
2023-05-27T10:03:47.602Z,26.71
2023-05-27T10:04:47.650Z,26.71
2023-05-27T10:05:47.623Z,26.72
2023-05-27T10:06:47.595Z,26.73
2023-05-27T10:08:08.806Z,26.73
2023-05-27T10:08:48.588Z,26.74
2023-05-27T10:09:49.155Z,26.73
2023-05-27T10:10:47.593Z,26.75
2023-05-27T10:11:47.560Z,26.76
2023-05-27T10:12:47.574Z,26.77
2023-05-27T10:13:47.571Z,26.78
2023-05-27T10:14:47.557Z,26.78
2023-05-27T10:15:47.539Z,26.79
2023-05-27T10:16:47.615Z,26.80
2023-05-27T10:17:47.536Z,26.79
2023-05-27T10:18:47.515Z,26.80
2023-05-27T10:19:47.506Z,26.80
2023-05-27T10:20:47.591Z,26.81
2023-05-27T10:21:47.488Z,26.80
2023-05-27T10:22:47.474Z,26.81
2023-05-27T10:23:47.513Z,26.83
2023-05-27T10:24:47.494Z,26.84
2023-05-27T10:25:47.544Z,26.85
2023-05-27T10:26:47.544Z,26.85
2023-05-27T10:27:47.588Z,26.84
2023-05-27T10:28:47.624Z,26.84
2023-05-27T10:29:47.642Z,26.84
2023-05-27T10:30:47.671Z,26.84
2023-05-27T10:31:50.959Z,26.84
2023-05-27T10:32:48.827Z,26.83
2023-05-27T10:33:47.699Z,26.84
2023-05-27T10:34:47.700Z,26.85
2023-05-27T10:35:47.669Z,26.85
2023-05-27T10:36:47.676Z,26.86
2023-05-27T10:37:47.671Z,26.84
2023-05-27T10:38:47.641Z,26.83
2023-05-27T10:39:47.637Z,26.82
2023-05-27T10:40:47.634Z,26.81
2023-05-27T10:41:47.629Z,26.79
2023-05-27T10:42:47.606Z,26.78
2023-05-27T10:43:47.617Z,26.77
2023-05-27T10:44:47.632Z,26.76
2023-05-27T10:45:47.684Z,26.75
2023-05-27T10:46:47.647Z,26.75
2023-05-27T10:47:47.662Z,26.74
2023-05-27T10:48:47.615Z,26.74
2023-05-27T10:49:47.573Z,26.75
2023-05-27T10:50:47.636Z,26.74
2023-05-27T10:51:47.582Z,26.75
2023-05-27T10:52:47.696Z,26.75
2023-05-27T10:53:50.684Z,26.75
2023-05-27T10:54:48.578Z,26.74
2023-05-27T10:55:47.550Z,26.74
2023-05-27T10:56:47.559Z,26.74
2023-05-27T10:57:47.530Z,26.76
2023-05-27T10:58:47.559Z,26.77
2023-05-27T10:59:47.545Z,26.78
2023-05-27T11:00:47.525Z,26.77
2023-05-27T11:01:47.527Z,26.77
2023-05-27T11:02:47.604Z,26.76
2023-05-27T11:03:47.709Z,26.77
2023-05-27T11:04:47.501Z,26.75
2023-05-27T11:05:47.506Z,26.75
2023-05-27T11:06:47.494Z,26.75
2023-05-27T11:07:47.467Z,26.75
2023-05-27T11:08:47.477Z,26.74
2023-05-27T11:09:47.511Z,26.75
2023-05-27T11:10:47.580Z,26.75
2023-05-27T11:11:47.608Z,26.74
2023-05-27T11:12:47.629Z,26.72
2023-05-27T11:13:48.808Z,26.70
2023-05-27T11:14:47.746Z,26.69
2023-05-27T11:15:47.833Z,26.69
2023-05-27T11:16:47.837Z,26.69
2023-05-27T11:17:47.911Z,26.68
2023-05-27T11:18:47.918Z,26.66
2023-05-27T11:19:47.981Z,26.65
2023-05-27T11:20:48.074Z,26.65
2023-05-27T11:21:47.994Z,26.64
2023-05-27T11:22:48.004Z,26.64
2023-05-27T11:23:48.026Z,26.64
2023-05-27T11:24:47.992Z,26.64
2023-05-27T11:25:48.000Z,26.65
2023-05-27T11:26:47.997Z,26.65
2023-05-27T11:27:48.002Z,26.65
2023-05-27T11:28:48.007Z,26.66
2023-05-27T11:29:47.991Z,26.66
2023-05-27T11:30:49.939Z,26.67
2023-05-27T11:31:48.043Z,26.66
2023-05-27T11:32:49.235Z,26.67
2023-05-27T11:33:48.081Z,26.67
2023-05-27T11:34:48.011Z,26.66
2023-05-27T11:35:48.042Z,26.66
2023-05-27T11:36:47.967Z,26.67
2023-05-27T11:37:47.979Z,26.68
2023-05-27T11:38:50.280Z,26.69
2023-05-27T11:39:47.937Z,26.69
2023-05-27T11:40:47.962Z,26.69
2023-05-27T11:41:47.916Z,26.69
2023-05-27T11:42:48.068Z,26.70
2023-05-27T11:43:47.920Z,26.72
2023-05-27T11:44:47.894Z,26.71
2023-05-27T11:45:47.976Z,26.72
2023-05-27T11:46:47.908Z,26.72
2023-05-27T11:47:47.928Z,26.72
2023-05-27T11:48:47.887Z,26.71
2023-05-27T11:49:47.911Z,26.70
2023-05-27T11:50:47.892Z,26.68
2023-05-27T11:51:47.893Z,26.67
2023-05-27T11:52:47.879Z,26.67
2023-05-27T11:53:47.905Z,26.69
2023-05-27T11:54:57.316Z,26.69
2023-05-27T11:55:49.043Z,26.69
2023-05-27T11:56:47.857Z,26.69
2023-05-27T11:57:47.841Z,26.69
2023-05-27T11:58:47.839Z,26.69
2023-05-27T11:59:47.823Z,26.69
2023-05-27T12:00:47.827Z,26.70
2023-05-27T12:01:47.807Z,26.70
2023-05-27T12:02:47.967Z,26.70
2023-05-27T12:03:47.787Z,26.70
2023-05-27T12:04:47.814Z,26.70
2023-05-27T12:05:47.853Z,26.71
2023-05-27T12:06:47.798Z,26.70
2023-05-27T12:07:48.693Z,26.69
2023-05-27T12:08:47.894Z,26.69
2023-05-27T12:09:47.964Z,26.68
2023-05-27T12:10:47.987Z,26.68
2023-05-27T12:11:48.048Z,26.66
2023-05-27T12:12:48.113Z,26.66
2023-05-27T12:13:48.143Z,26.66
2023-05-27T12:14:48.211Z,26.67
2023-05-27T12:15:48.378Z,26.66
2023-05-27T12:16:48.267Z,26.65
2023-05-27T12:17:48.371Z,26.65
2023-05-27T12:18:48.400Z,26.64
2023-05-27T12:19:48.400Z,26.65
2023-05-27T12:20:48.527Z,26.64
2023-05-27T12:21:48.482Z,26.64
2023-05-27T12:22:48.530Z,26.63
2023-05-27T12:23:48.581Z,26.61
2023-05-27T12:24:48.598Z,26.60
2023-05-27T12:25:48.812Z,26.58
2023-05-27T12:26:48.669Z,26.57
2023-05-27T12:27:48.756Z,26.56
2023-05-27T12:28:48.817Z,26.55
2023-05-27T12:29:48.881Z,26.54
2023-05-27T12:30:48.906Z,26.54
2023-05-27T12:31:48.908Z,26.54
2023-05-27T12:32:48.922Z,26.54
2023-05-27T12:33:48.909Z,26.54
2023-05-27T12:34:48.933Z,26.53
2023-05-27T12:35:49.098Z,26.54
2023-05-27T12:36:48.981Z,26.56
2023-05-27T12:37:49.000Z,26.56
2023-05-27T12:38:48.971Z,26.55
2023-05-27T12:39:48.995Z,26.53
2023-05-27T12:40:49.038Z,26.52
2023-05-27T12:41:49.038Z,26.51
2023-05-27T12:42:49.034Z,26.51
2023-05-27T12:43:49.066Z,26.52
2023-05-27T12:44:49.068Z,26.50
2023-05-27T12:45:49.375Z,26.50
2023-05-27T12:46:49.163Z,26.50
2023-05-27T12:47:49.146Z,26.50
2023-05-27T12:48:49.127Z,26.49
2023-05-27T12:49:49.136Z,26.50
2023-05-27T12:50:49.147Z,26.50
2023-05-27T12:51:49.182Z,26.51
2023-05-27T12:52:49.253Z,26.50
2023-05-27T12:53:49.226Z,26.51